Time;durP1;ratioP1;P1;durP2;ratioP2;P2;SDS_P1;SDS_P2;PMS_P1;PMS_P2;Temp;Humidity;BMP_temperature;BMP_pressure;BME280_temperature;BME280_humidity;BME280_pressure;Samples;Min_cycle;Max_cycle;Signal;HPM_P1;HPM_P2
2022/06/21 00:00:02;;;;;;;2.90;1.33;;;;;;;;;;5053173;28;20230;-16
2022/06/21 00:02:29;;;;;;;3.65;1.70;;;;;;;;;;5053230;28;20234;-16
2022/06/21 00:04:57;;;;;;;6.40;1.60;;;;;;;;;;5053574;28;20732;-16
2022/06/21 00:07:26;;;;;;;4.00;1.42;;;;;;;;;;5053337;28;20233;-16
2022/06/21 00:09:53;;;;;;;5.22;1.73;;;;;;;;;;5053559;28;20324;-16
2022/06/21 00:12:21;;;;;;;7.90;1.73;;;;;;;;;;5052725;28;20238;-16
2022/06/21 00:14:50;;;;;;;2.75;1.40;;;;;;;;;;5053154;28;20237;-16
2022/06/21 00:17:18;;;;;;;3.22;1.67;;;;;;;;;;5052984;28;20245;-16
2022/06/21 00:19:45;;;;;;;3.50;1.73;;;;;;;;;;5053069;28;20230;-16
2022/06/21 00:22:13;;;;;;;3.65;1.90;;;;;;;;;;5052105;28;20693;-16
2022/06/21 00:24:40;;;;;;;4.60;1.65;;;;;;;;;;5053077;28;20230;-16
2022/06/21 00:27:10;;;;;;;7.07;1.60;;;;;;;;;;5053230;28;21067;-16
2022/06/21 00:29:38;;;;;;;6.45;2.03;;;;;;;;;;5053434;28;20244;-16
2022/06/21 00:32:09;;;;;;;2.42;1.27;;;;;;;;;;5052640;28;20230;-16
2022/06/21 00:34:37;;;;;;;4.32;1.40;;;;;;;;;;5053127;28;20229;-16
2022/06/21 00:37:04;;;;;;;6.32;1.92;;;;;;;;;;5052327;28;20233;-16
2022/06/21 00:39:32;;;;;;;2.03;1.30;;;;;;;;;;5052915;28;20341;-16
2022/06/21 00:42:01;;;;;;;3.03;1.50;;;;;;;;;;5051017;28;20698;-16
2022/06/21 00:44:31;;;;;;;4.85;1.52;;;;;;;;;;5058652;28;20716;-16
2022/06/21 00:47:01;;;;;;;3.83;1.25;;;;;;;;;;5052772;28;20241;-16
2022/06/21 00:49:31;;;;;;;2.47;1.25;;;;;;;;;;5052767;28;20316;-16
2022/06/21 00:52:00;;;;;;;3.35;1.23;;;;;;;;;;5053006;28;20223;-16
2022/06/21 00:54:29;;;;;;;10.35;1.45;;;;;;;;;;5051890;28;20971;-16
2022/06/21 00:56:58;;;;;;;5.70;1.58;;;;;;;;;;5052860;28;20260;-16
2022/06/21 00:59:27;;;;;;;5.75;1.20;;;;;;;;;;5052601;28;20234;-16
2022/06/21 01:01:55;;;;;;;3.03;1.52;;;;;;;;;;5051857;28;20232;-16
2022/06/21 01:04:25;;;;;;;3.60;1.10;;;;;;;;;;5043182;28;20744;-16
2022/06/21 01:06:55;;;;;;;5.00;1.10;;;;;;;;;;5051281;28;20241;-16
2022/06/21 01:09:23;;;;;;;3.22;1.65;;;;;;;;;;5052750;28;20238;-16
2022/06/21 01:11:51;;;;;;;3.85;1.35;;;;;;;;;;5056383;28;20340;-16
2022/06/21 01:14:19;;;;;;;1.70;1.02;;;;;;;;;;5052421;28;20665;-16
2022/06/21 01:16:46;;;;;;;2.53;1.30;;;;;;;;;;5052512;28;20234;-16
2022/06/21 01:19:15;;;;;;;3.65;1.40;;;;;;;;;;5052231;28;20308;-16
2022/06/21 01:21:42;;;;;;;2.88;1.30;;;;;;;;;;5051912;28;20277;-16
2022/06/21 01:24:13;;;;;;;6.60;1.55;;;;;;;;;;5051922;28;20309;-16
2022/06/21 01:26:45;;;;;;;3.90;1.25;;;;;;;;;;5051026;28;20330;-16
2022/06/21 01:29:21;;;;;;;2.00;1.33;;;;;;;;;;5052117;28;20230;-16
2022/06/21 01:31:48;;;;;;;4.05;1.35;;;;;;;;;;5052210;28;20229;-16
2022/06/21 01:34:16;;;;;;;3.67;1.50;;;;;;;;;;5052159;28;21006;-16
2022/06/21 01:36:43;;;;;;;2.28;1.17;;;;;;;;;;5051765;28;20242;-16
2022/06/21 01:39:27;;;;;;;2.78;1.27;;;;;;;;;;5052074;28;20245;-16
2022/06/21 01:41:57;;;;;;;2.67;1.35;;;;;;;;;;5051957;28;20731;-16
2022/06/21 01:44:26;;;;;;;6.70;1.40;;;;;;;;;;5051647;28;20226;-16
2022/06/21 01:46:53;;;;;;;2.45;1.20;;;;;;;;;;5051834;28;20238;-16
2022/06/21 01:49:22;;;;;;;3.50;1.38;;;;;;;;;;5051571;28;20694;-16
2022/06/21 01:51:51;;;;;;;3.83;1.40;;;;;;;;;;5051362;28;20233;-16
2022/06/21 01:54:19;;;;;;;3.05;1.30;;;;;;;;;;5050724;28;21078;-16
2022/06/21 01:56:47;;;;;;;2.13;1.05;;;;;;;;;;5051838;28;20238;-16
2022/06/21 01:59:17;;;;;;;2.22;1.40;;;;;;;;;;5051894;28;20222;-16
2022/06/21 02:01:46;;;;;;;3.03;1.40;;;;;;;;;;5051528;28;20343;-16
2022/06/21 02:04:13;;;;;;;8.98;1.73;;;;;;;;;;5051355;28;20233;-16
2022/06/21 02:06:41;;;;;;;2.05;1.10;;;;;;;;;;5051734;28;21126;-16
2022/06/21 02:09:09;;;;;;;1.40;1.30;;;;;;;;;;5037326;28;20348;-16
2022/06/21 02:11:42;;;;;;;2.67;1.27;;;;;;;;;;5044086;28;20229;-16
2022/06/21 02:16:58;;;;;;;2.58;1.17;;;;;;;;;;5050492;28;20244;-16
2022/06/21 02:19:27;;;;;;;2.75;1.40;;;;;;;;;;5051168;28;20233;-16
2022/06/21 02:21:54;;;;;;;4.20;1.23;;;;;;;;;;5050388;28;20238;-16
2022/06/21 02:24:23;;;;;;;3.40;1.50;;;;;;;;;;5051586;28;20244;-16
2022/06/21 02:26:50;;;;;;;3.10;1.30;;;;;;;;;;5050767;28;21067;-16
2022/06/21 02:29:17;;;;;;;2.70;1.10;;;;;;;;;;5052006;28;20234;-16
2022/06/21 02:31:45;;;;;;;2.35;1.30;;;;;;;;;;5054865;28;20230;-16
2022/06/21 02:34:16;;;;;;;2.65;1.40;;;;;;;;;;5049912;28;21037;-16
2022/06/21 02:36:45;;;;;;;5.85;1.15;;;;;;;;;;5048430;28;20234;-16
2022/06/21 02:39:13;;;;;;;2.22;1.02;;;;;;;;;;5048825;28;20257;-16
2022/06/21 02:41:40;;;;;;;2.88;1.10;;;;;;;;;;5049472;28;20230;-16
2022/06/21 02:44:10;;;;;;;2.55;1.17;;;;;;;;;;5049034;28;20226;-16
2022/06/21 02:46:38;;;;;;;4.35;1.35;;;;;;;;;;5049635;28;20245;-16
2022/06/21 02:49:07;;;;;;;2.50;1.38;;;;;;;;;;5050027;28;20697;-16
2022/06/21 02:51:37;;;;;;;2.55;1.27;;;;;;;;;;5050909;28;21031;-16
2022/06/21 02:54:07;;;;;;;1.48;1.00;;;;;;;;;;5050377;28;20702;-16
2022/06/21 02:56:35;;;;;;;2.70;1.30;;;;;;;;;;5050949;28;20709;-16
2022/06/21 02:59:03;;;;;;;1.85;1.05;;;;;;;;;;5050870;28;20237;-16
2022/06/21 03:01:32;;;;;;;3.22;1.30;;;;;;;;;;5050537;28;20950;-16
2022/06/21 03:04:00;;;;;;;3.25;1.20;;;;;;;;;;5050664;28;20230;-16
2022/06/21 03:06:28;;;;;;;2.08;1.10;;;;;;;;;;5049543;28;21132;-16
2022/06/21 03:08:58;;;;;;;2.30;1.13;;;;;;;;;;5050847;28;20230;-16
2022/06/21 03:11:27;;;;;;;2.00;1.13;;;;;;;;;;5050817;28;20620;-16
2022/06/21 03:13:55;;;;;;;2.50;1.20;;;;;;;;;;5050483;28;20230;-16
2022/06/21 03:16:22;;;;;;;3.28;1.55;;;;;;;;;;5050246;28;20230;-16
2022/06/21 03:18:51;;;;;;;1.67;1.00;;;;;;;;;;5050588;28;20234;-16
2022/06/21 03:21:21;;;;;;;1.83;1.15;;;;;;;;;;5050629;28;20264;-16
2022/06/21 03:23:48;;;;;;;1.95;1.00;;;;;;;;;;5050309;28;20740;-16
2022/06/21 03:26:17;;;;;;;2.10;1.02;;;;;;;;;;5051231;28;20796;-16
2022/06/21 03:28:45;;;;;;;1.70;1.10;;;;;;;;;;5056021;28;20229;-16
2022/06/21 03:31:13;;;;;;;3.17;1.10;;;;;;;;;;5049818;28;20774;-16
2022/06/21 03:33:41;;;;;;;2.53;1.20;;;;;;;;;;5050401;28;20251;-16
2022/06/21 03:36:09;;;;;;;1.60;1.15;;;;;;;;;;5050328;28;20234;-16
2022/06/21 03:38:37;;;;;;;1.92;1.10;;;;;;;;;;5049863;28;20238;-16
2022/06/21 03:43:51;;;;;;;1.65;1.10;;;;;;;;;;5050480;28;20693;-16
2022/06/21 03:46:19;;;;;;;1.55;1.25;;;;;;;;;;5050523;28;20226;-16
2022/06/21 03:48:47;;;;;;;2.13;1.30;;;;;;;;;;5050018;28;20394;-16
2022/06/21 03:51:15;;;;;;;1.92;1.20;;;;;;;;;;5050179;28;20230;-16
2022/06/21 03:53:43;;;;;;;2.50;1.48;;;;;;;;;;5050291;28;20234;-16
2022/06/21 03:56:11;;;;;;;1.60;1.00;;;;;;;;;;5049606;28;20713;-16
2022/06/21 03:58:42;;;;;;;1.00;0.90;;;;;;;;;;5050117;28;20234;-16
2022/06/21 04:01:12;;;;;;;1.70;1.10;;;;;;;;;;5049387;28;20234;-16
2022/06/21 04:03:41;;;;;;;1.65;1.10;;;;;;;;;;5049686;28;20236;-16
2022/06/21 04:06:11;;;;;;;2.33;1.10;;;;;;;;;;5049930;28;20300;-16
2022/06/21 04:08:39;;;;;;;2.25;1.30;;;;;;;;;;5036099;28;20258;-16
2022/06/21 04:11:08;;;;;;;2.13;1.20;;;;;;;;;;5057304;28;20229;-16
2022/06/21 04:13:36;;;;;;;2.03;1.05;;;;;;;;;;5051158;28;20230;-16
2022/06/21 04:16:05;;;;;;;3.75;1.20;;;;;;;;;;5049963;28;20994;-16
2022/06/21 04:18:34;;;;;;;1.90;1.20;;;;;;;;;;5052962;28;20230;-16
2022/06/21 04:21:03;;;;;;;2.25;1.10;;;;;;;;;;5052534;28;20246;-16
2022/06/21 04:23:31;;;;;;;2.88;1.27;;;;;;;;;;5052089;28;20245;-16
2022/06/21 04:26:00;;;;;;;2.45;1.30;;;;;;;;;;5053061;28;20236;-16
2022/06/21 04:28:33;;;;;;;3.90;1.20;;;;;;;;;;5053258;28;20240;-16
2022/06/21 04:31:02;;;;;;;1.70;1.20;;;;;;;;;;5052839;28;20230;-16
2022/06/21 04:33:31;;;;;;;3.00;1.40;;;;;;;;;;5052466;28;20261;-16
2022/06/21 04:36:01;;;;;;;1.98;1.25;;;;;;;;;;5052764;28;20230;-16
2022/06/21 04:38:32;;;;;;;1.55;1.20;;;;;;;;;;5052865;28;20237;-16
2022/06/21 04:41:01;;;;;;;3.47;1.52;;;;;;;;;;5052860;28;21019;-16
2022/06/21 04:43:29;;;;;;;1.58;1.08;;;;;;;;;;5052623;28;20234;-16
2022/06/21 04:45:57;;;;;;;1.95;1.30;;;;;;;;;;5051829;28;20227;-16
2022/06/21 04:48:26;;;;;;;2.13;1.13;;;;;;;;;;5052701;28;20677;-16
2022/06/21 04:50:55;;;;;;;19.98;2.28;;;;;;;;;;5052706;28;20345;-16
2022/06/21 04:53:24;;;;;;;3.67;1.50;;;;;;;;;;5053059;28;20254;-16
2022/06/21 04:55:54;;;;;;;2.92;1.42;;;;;;;;;;5053409;28;20305;-16
2022/06/21 04:58:21;;;;;;;2.08;1.38;;;;;;;;;;5052338;28;20257;-16
2022/06/21 05:00:48;;;;;;;3.60;1.33;;;;;;;;;;5052429;28;20249;-16
2022/06/21 05:03:21;;;;;;;1.98;1.30;;;;;;;;;;5052314;28;20234;-16
2022/06/21 05:05:48;;;;;;;3.58;1.58;;;;;;;;;;5052103;28;20269;-16
2022/06/21 05:08:16;;;;;;;2.38;1.30;;;;;;;;;;5052391;28;20238;-16
2022/06/21 05:10:46;;;;;;;3.10;1.50;;;;;;;;;;5051702;28;20237;-16
2022/06/21 05:13:15;;;;;;;2.28;1.23;;;;;;;;;;5052191;28;20701;-16
2022/06/21 05:15:42;;;;;;;3.20;1.52;;;;;;;;;;5052973;28;20253;-16
2022/06/21 05:18:12;;;;;;;6.25;1.33;;;;;;;;;;5053280;28;20227;-16
2022/06/21 05:20:41;;;;;;;2.72;1.30;;;;;;;;;;5052260;28;20234;-16
2022/06/21 05:23:09;;;;;;;3.38;1.20;;;;;;;;;;5051653;28;20246;-16
2022/06/21 05:25:37;;;;;;;2.50;1.30;;;;;;;;;;5052299;28;20230;-16
2022/06/21 05:28:10;;;;;;;2.28;1.40;;;;;;;;;;5059155;28;20941;-16
2022/06/21 05:30:39;;;;;;;2.58;1.30;;;;;;;;;;5053217;28;20226;-16
2022/06/21 05:33:08;;;;;;;1.90;1.30;;;;;;;;;;5051860;28;21002;-16
2022/06/21 05:35:36;;;;;;;2.17;1.30;;;;;;;;;;5051257;28;20237;-16
2022/06/21 05:38:05;;;;;;;3.00;1.48;;;;;;;;;;5038879;28;20697;-16
2022/06/21 05:40:34;;;;;;;5.95;1.70;;;;;;;;;;5051640;28;20341;-16
2022/06/21 05:43:01;;;;;;;2.70;1.40;;;;;;;;;;5051914;28;20237;-16
2022/06/21 05:45:32;;;;;;;3.97;1.70;;;;;;;;;;5051597;28;20230;-16
2022/06/21 05:48:00;;;;;;;2.17;1.27;;;;;;;;;;5048476;28;20812;-16
2022/06/21 05:50:29;;;;;;;3.72;1.13;;;;;;;;;;5050555;28;20236;-16
2022/06/21 05:52:58;;;;;;;4.88;1.42;;;;;;;;;;5049166;28;20227;-16
2022/06/21 05:55:26;;;;;;;3.80;1.50;;;;;;;;;;5039042;28;20256;-16
2022/06/21 05:57:55;;;;;;;3.85;1.60;;;;;;;;;;5048314;28;20237;-16
2022/06/21 06:00:28;;;;;;;5.55;2.15;;;;;;;;;;5048044;28;20736;-16
2022/06/21 06:02:57;;;;;;;4.80;1.58;;;;;;;;;;5043961;28;20237;-16
2022/06/21 06:05:26;;;;;;;3.92;1.23;;;;;;;;;;5051318;28;20226;-16
2022/06/21 06:07:55;;;;;;;3.42;1.40;;;;;;;;;;5047959;28;20234;-16
2022/06/21 06:10:24;;;;;;;3.60;1.33;;;;;;;;;;5042105;28;20230;-16
2022/06/21 06:12:52;;;;;;;4.40;1.42;;;;;;;;;;5049995;28;20226;-16
2022/06/21 06:15:20;;;;;;;3.08;1.23;;;;;;;;;;5052557;28;20230;-16
2022/06/21 06:17:48;;;;;;;4.43;1.45;;;;;;;;;;5051364;28;20693;-16
2022/06/21 06:20:18;;;;;;;4.38;1.52;;;;;;;;;;5052061;28;20234;-16
2022/06/21 06:22:45;;;;;;;5.22;1.60;;;;;;;;;;5051719;28;20747;-16
2022/06/21 06:25:14;;;;;;;4.22;1.20;;;;;;;;;;5051588;28;20337;-16
2022/06/21 06:27:45;;;;;;;5.63;1.40;;;;;;;;;;5052160;28;20244;-16
2022/06/21 06:30:13;;;;;;;4.78;1.23;;;;;;;;;;5051831;28;20230;-16
2022/06/21 06:32:42;;;;;;;4.15;1.20;;;;;;;;;;5051355;28;20226;-16
2022/06/21 06:35:13;;;;;;;2.95;1.23;;;;;;;;;;5051201;28;20353;-16
2022/06/21 06:37:42;;;;;;;3.30;1.25;;;;;;;;;;5051421;28;20705;-16
2022/06/21 06:40:15;;;;;;;5.93;1.45;;;;;;;;;;5050874;28;20586;-16
2022/06/21 06:42:43;;;;;;;3.67;1.75;;;;;;;;;;5051503;28;20229;-16
2022/06/21 06:45:12;;;;;;;6.45;1.58;;;;;;;;;;5050394;28;20222;-16
2022/06/21 06:47:40;;;;;;;5.90;2.30;;;;;;;;;;5051090;28;20240;-16
2022/06/21 06:50:08;;;;;;;9.50;2.10;;;;;;;;;;5050111;28;20280;-16
2022/06/21 06:52:37;;;;;;;8.82;2.35;;;;;;;;;;5050320;28;20775;-16
2022/06/21 06:55:08;;;;;;;5.07;1.60;;;;;;;;;;5048150;28;20234;-16
2022/06/21 06:57:36;;;;;;;5.18;1.98;;;;;;;;;;5049783;28;20276;-16
2022/06/21 07:00:06;;;;;;;5.78;1.60;;;;;;;;;;5050689;28;21145;-16
2022/06/21 07:02:35;;;;;;;3.88;1.60;;;;;;;;;;5048394;28;20632;-16
2022/06/21 07:05:05;;;;;;;5.65;1.80;;;;;;;;;;5050816;28;20238;-16
2022/06/21 07:07:35;;;;;;;6.30;2.00;;;;;;;;;;5047852;28;20265;-16
2022/06/21 07:10:03;;;;;;;2.22;1.20;;;;;;;;;;5049089;28;20241;-16
2022/06/21 07:12:32;;;;;;;6.82;1.98;;;;;;;;;;5050760;28;20230;-16
2022/06/21 07:15:00;;;;;;;4.30;0.90;;;;;;;;;;5047754;28;20260;-16
2022/06/21 07:17:28;;;;;;;3.83;1.20;;;;;;;;;;5050331;28;20241;-16
2022/06/21 07:19:56;;;;;;;5.65;1.58;;;;;;;;;;5048744;28;20760;-16
2022/06/21 07:22:25;;;;;;;6.13;2.05;;;;;;;;;;5050032;28;20242;-16
2022/06/21 07:24:55;;;;;;;3.60;1.33;;;;;;;;;;5048868;28;20233;-16
2022/06/21 07:27:23;;;;;;;7.65;1.25;;;;;;;;;;5050244;28;20236;-16
2022/06/21 07:29:53;;;;;;;10.27;1.40;;;;;;;;;;5049684;28;20667;-16
2022/06/21 07:32:22;;;;;;;6.35;1.88;;;;;;;;;;5049708;28;20704;-16
2022/06/21 07:34:50;;;;;;;5.65;1.90;;;;;;;;;;5050242;28;20261;-16
2022/06/21 07:37:19;;;;;;;5.05;1.90;;;;;;;;;;5050140;28;20233;-16
2022/06/21 07:39:48;;;;;;;11.00;1.52;;;;;;;;;;5048943;28;20620;-16
2022/06/21 07:42:16;;;;;;;6.18;1.20;;;;;;;;;;5054696;28;20285;-16
2022/06/21 07:44:44;;;;;;;3.85;1.05;;;;;;;;;;5056380;28;20230;-16
2022/06/21 07:47:14;;;;;;;3.35;0.70;;;;;;;;;;5049716;28;21147;-16
2022/06/21 07:49:43;;;;;;;3.50;1.05;;;;;;;;;;5055764;28;20229;-16
2022/06/21 07:52:12;;;;;;;4.03;1.63;;;;;;;;;;5058762;28;20435;-16
2022/06/21 07:54:41;;;;;;;4.97;1.20;;;;;;;;;;5053887;28;20351;-16
2022/06/21 07:57:08;;;;;;;4.95;1.50;;;;;;;;;;5053116;28;20230;-16
2022/06/21 07:59:38;;;;;;;4.97;1.27;;;;;;;;;;5053184;28;20226;-16
2022/06/21 08:07:39;;;;;;;6.80;1.30;;;;;;;;;;5052687;28;20226;-16
2022/06/21 08:10:07;;;;;;;5.07;1.17;;;;;;;;;;5052610;28;20238;-16
2022/06/21 08:12:35;;;;;;;3.38;1.00;;;;;;;;;;5047645;28;20235;-16
2022/06/21 08:15:03;;;;;;;7.95;1.20;;;;;;;;;;5052914;28;20240;-16
2022/06/21 08:17:32;;;;;;;7.25;1.33;;;;;;;;;;5049475;28;20234;-16
2022/06/21 08:20:01;;;;;;;6.10;1.10;;;;;;;;;;5046455;28;20222;-16
2022/06/21 08:22:30;;;;;;;4.45;1.52;;;;;;;;;;5053118;28;20244;-16
2022/06/21 08:24:58;;;;;;;5.30;1.65;;;;;;;;;;5053038;28;20230;-16
2022/06/21 08:27:27;;;;;;;5.85;1.48;;;;;;;;;;5052562;28;20233;-16
2022/06/21 08:29:55;;;;;;;5.75;1.75;;;;;;;;;;5045620;28;20234;-16
2022/06/21 08:32:25;;;;;;;9.27;1.85;;;;;;;;;;5051849;28;20226;-16
2022/06/21 08:34:55;;;;;;;4.80;1.35;;;;;;;;;;5052076;28;20308;-16
2022/06/21 08:37:26;;;;;;;6.03;1.30;;;;;;;;;;5052460;28;20736;-16
2022/06/21 08:39:54;;;;;;;5.82;1.15;;;;;;;;;;5052671;28;20603;-16
2022/06/21 08:42:32;;;;;;;3.45;1.20;;;;;;;;;;5052809;28;20234;-16
2022/06/21 08:48:20;;;;;;;5.63;1.70;;;;;;;;;;5039696;28;20694;-16
2022/06/21 08:50:51;;;;;;;4.55;1.02;;;;;;;;;;5052138;28;20635;-16
2022/06/21 08:53:32;;;;;;;5.50;1.52;;;;;;;;;;5052502;28;20265;-16
2022/06/21 08:56:02;;;;;;;2.38;1.27;;;;;;;;;;5051849;28;20226;-16
2022/06/21 08:58:34;;;;;;;2.50;1.08;;;;;;;;;;5048910;28;20246;-16
2022/06/21 09:01:03;;;;;;;2.00;1.10;;;;;;;;;;5051475;28;20713;-16
2022/06/21 09:03:35;;;;;;;3.35;1.23;;;;;;;;;;5051947;28;20275;-16
2022/06/21 09:06:18;;;;;;;2.58;1.02;;;;;;;;;;5049083;28;20295;-16
2022/06/21 09:08:50;;;;;;;5.47;1.42;;;;;;;;;;5048525;28;20333;-16
2022/06/21 09:11:26;;;;;;;2.90;1.33;;;;;;;;;;5052051;28;20333;-16
2022/06/21 09:13:56;;;;;;;3.92;1.83;;;;;;;;;;5052256;28;20237;-16
2022/06/21 09:16:31;;;;;;;6.70;1.60;;;;;;;;;;5039295;28;20246;-16
2022/06/21 09:19:03;;;;;;;6.25;1.20;;;;;;;;;;5035849;28;20677;-17
2022/06/21 09:21:32;;;;;;;7.47;1.40;;;;;;;;;;5042723;28;20253;-17
2022/06/21 09:24:02;;;;;;;9.18;0.90;;;;;;;;;;5042217;28;20238;-16
2022/06/21 09:26:32;;;;;;;4.43;0.70;;;;;;;;;;5030263;28;20234;-17
2022/06/21 09:29:03;;;;;;;6.93;1.17;;;;;;;;;;5041827;28;20425;-17
2022/06/21 09:31:35;;;;;;;7.95;1.02;;;;;;;;;;5044070;28;20234;-17
2022/06/21 09:34:04;;;;;;;5.40;0.85;;;;;;;;;;5037649;28;20218;-17
2022/06/21 09:36:33;;;;;;;3.00;0.80;;;;;;;;;;5032283;28;20234;-16
2022/06/21 09:39:06;;;;;;;4.03;0.80;;;;;;;;;;5035654;28;20226;-16
2022/06/21 09:41:34;;;;;;;3.05;0.63;;;;;;;;;;5038560;28;20243;-17
2022/06/21 09:44:03;;;;;;;3.80;1.20;;;;;;;;;;5041233;28;20245;-16
2022/06/21 09:46:32;;;;;;;4.60;0.73;;;;;;;;;;5043840;28;20230;-16
2022/06/21 09:49:01;;;;;;;3.95;1.38;;;;;;;;;;5035364;28;21268;-16
2022/06/21 09:51:33;;;;;;;4.78;0.70;;;;;;;;;;5048576;28;20232;-16
2022/06/21 09:54:15;;;;;;;1.80;0.70;;;;;;;;;;5039076;28;20241;-16
2022/06/21 09:56:44;;;;;;;1.88;0.70;;;;;;;;;;5046001;28;20234;-16
2022/06/21 09:59:13;;;;;;;2.72;0.80;;;;;;;;;;5033131;28;20243;-17
2022/06/21 10:01:42;;;;;;;2.83;0.80;;;;;;;;;;5034778;28;20230;-17
2022/06/21 10:04:14;;;;;;;3.67;1.00;;;;;;;;;;5035860;28;20245;-16
2022/06/21 10:06:44;;;;;;;4.35;0.95;;;;;;;;;;5042499;28;20231;-17
2022/06/21 10:09:18;;;;;;;1.88;0.85;;;;;;;;;;5037659;28;21226;-16
2022/06/21 10:11:50;;;;;;;1.90;0.70;;;;;;;;;;5042777;28;20238;-16
2022/06/21 10:14:30;;;;;;;2.65;0.80;;;;;;;;;;5036163;28;20230;-17
2022/06/21 10:17:11;;;;;;;3.90;0.88;;;;;;;;;;5042944;28;20329;-16
2022/06/21 10:19:40;;;;;;;3.75;0.88;;;;;;;;;;5036552;28;20244;-17
2022/06/21 10:22:25;;;;;;;2.50;0.80;;;;;;;;;;5033167;28;20234;-16
2022/06/21 10:25:11;;;;;;;2.80;0.70;;;;;;;;;;5027628;28;20329;-17
2022/06/21 10:27:49;;;;;;;5.80;0.77;;;;;;;;;;5039363;28;20234;-16
2022/06/21 10:30:44;;;;;;;6.32;1.20;;;;;;;;;;5043849;28;21020;-17
2022/06/21 10:33:14;;;;;;;6.55;1.30;;;;;;;;;;5009584;28;20234;-16
2022/06/21 10:35:47;;;;;;;2.50;0.73;;;;;;;;;;5035986;28;20234;-16
2022/06/21 10:38:28;;;;;;;3.17;0.95;;;;;;;;;;5041534;28;20230;-16
2022/06/21 10:40:59;;;;;;;2.78;0.88;;;;;;;;;;5040894;28;20236;-16
2022/06/21 10:43:31;;;;;;;4.88;1.02;;;;;;;;;;5044327;28;20229;-16
2022/06/21 10:45:59;;;;;;;5.18;0.80;;;;;;;;;;5036416;28;20238;-17
2022/06/21 10:48:41;;;;;;;7.40;0.88;;;;;;;;;;5042116;28;20324;-17
2022/06/21 10:51:11;;;;;;;2.20;0.70;;;;;;;;;;5040892;28;20242;-16
2022/06/21 10:53:42;;;;;;;3.45;0.85;;;;;;;;;;5036870;28;20693;-16
2022/06/21 10:59:09;;;;;;;3.13;1.00;;;;;;;;;;5039467;28;20238;-17
2022/06/21 11:01:38;;;;;;;5.57;0.80;;;;;;;;;;5036331;28;20717;-16
2022/06/21 11:04:19;;;;;;;3.72;0.80;;;;;;;;;;5043524;28;20230;-16
2022/06/21 11:06:49;;;;;;;3.05;0.70;;;;;;;;;;5032358;28;20249;-16
2022/06/21 11:09:19;;;;;;;3.42;0.70;;;;;;;;;;5034471;28;20249;-16
2022/06/21 11:11:48;;;;;;;3.92;0.85;;;;;;;;;;5037223;28;20238;-16
2022/06/21 11:14:20;;;;;;;6.07;0.82;;;;;;;;;;5038973;28;20719;-17
2022/06/21 11:16:49;;;;;;;2.35;1.00;;;;;;;;;;5039070;28;20230;-16
2022/06/21 11:19:18;;;;;;;3.30;0.98;;;;;;;;;;5033598;28;20281;-17
2022/06/21 11:21:52;;;;;;;3.40;0.73;;;;;;;;;;5041064;28;20247;-16
2022/06/21 11:24:23;;;;;;;1.83;0.80;;;;;;;;;;5028864;28;20238;-16
2022/06/21 11:26:52;;;;;;;1.83;0.73;;;;;;;;;;5044402;28;20286;-16
2022/06/21 11:29:24;;;;;;;3.33;1.13;;;;;;;;;;5039848;28;21080;-16
2022/06/21 11:31:54;;;;;;;2.53;0.90;;;;;;;;;;5038721;28;20727;-16
2022/06/21 11:34:23;;;;;;;6.22;0.88;;;;;;;;;;5040667;28;20234;-16
2022/06/21 11:36:54;;;;;;;3.67;0.98;;;;;;;;;;5048271;28;20240;-16
2022/06/21 11:39:27;;;;;;;7.68;0.88;;;;;;;;;;5046031;28;20238;-16
2022/06/21 11:42:08;;;;;;;3.75;0.90;;;;;;;;;;5038748;28;20739;-16
2022/06/21 11:44:44;;;;;;;3.63;0.70;;;;;;;;;;5039639;28;20698;-16
2022/06/21 11:47:11;;;;;;;2.28;0.65;;;;;;;;;;5032870;28;20912;-18
2022/06/21 11:49:43;;;;;;;2.95;0.95;;;;;;;;;;5042686;28;20619;-17
2022/06/21 11:52:28;;;;;;;2.35;0.77;;;;;;;;;;5035423;28;20223;-17
2022/06/21 11:54:57;;;;;;;5.47;0.93;;;;;;;;;;5043179;28;20238;-16
2022/06/21 11:57:27;;;;;;;2.33;0.63;;;;;;;;;;5037018;28;20851;-17
2022/06/21 11:59:58;;;;;;;3.75;0.70;;;;;;;;;;5036768;28;20242;-16
2022/06/21 12:02:25;;;;;;;3.40;0.82;;;;;;;;;;5041301;28;20238;-17
2022/06/21 12:04:55;;;;;;;2.00;0.60;;;;;;;;;;5039304;28;20234;-17
2022/06/21 12:07:23;;;;;;;4.78;0.88;;;;;;;;;;5043283;28;20230;-17
2022/06/21 12:09:55;;;;;;;1.58;0.70;;;;;;;;;;5043980;28;20238;-16
2022/06/21 12:12:29;;;;;;;5.38;1.00;;;;;;;;;;5043747;28;20230;-16
2022/06/21 12:15:01;;;;;;;4.22;0.88;;;;;;;;;;5036275;28;20953;-17
2022/06/21 12:17:31;;;;;;;3.15;0.70;;;;;;;;;;5039748;28;20619;-16
2022/06/21 12:20:00;;;;;;;2.15;0.70;;;;;;;;;;5033651;28;20241;-17
2022/06/21 12:22:28;;;;;;;5.60;0.80;;;;;;;;;;5045253;28;20415;-16
2022/06/21 12:24:56;;;;;;;4.30;0.63;;;;;;;;;;5043979;28;20241;-18
2022/06/21 12:27:23;;;;;;;2.72;0.70;;;;;;;;;;5038093;28;20712;-17
2022/06/21 12:29:51;;;;;;;4.15;1.30;;;;;;;;;;5040465;28;20234;-17
2022/06/21 12:32:21;;;;;;;5.90;1.05;;;;;;;;;;5038481;28;20234;-16
2022/06/21 12:34:55;;;;;;;4.80;0.70;;;;;;;;;;5039745;28;20317;-16
2022/06/21 12:37:23;;;;;;;6.82;0.73;;;;;;;;;;5039884;28;20238;-16
2022/06/21 12:39:59;;;;;;;7.00;1.17;;;;;;;;;;5040854;28;20233;-17
2022/06/21 12:42:36;;;;;;;3.67;0.60;;;;;;;;;;5035475;28;20694;-16
2022/06/21 12:45:10;;;;;;;2.65;0.82;;;;;;;;;;5044233;28;20227;-16
2022/06/21 12:47:42;;;;;;;2.58;0.55;;;;;;;;;;5035229;28;20833;-17
2022/06/21 12:50:28;;;;;;;6.82;0.98;;;;;;;;;;5040627;28;20342;-16
2022/06/21 12:52:58;;;;;;;7.00;1.05;;;;;;;;;;5041320;28;20210;-17
2022/06/21 12:55:26;;;;;;;9.32;1.13;;;;;;;;;;5044276;28;20267;-16
2022/06/21 12:57:56;;;;;;;2.08;0.82;;;;;;;;;;5035258;28;20234;-17
2022/06/21 13:00:25;;;;;;;4.18;0.90;;;;;;;;;;5041142;28;20235;-16
2022/06/21 13:02:58;;;;;;;4.57;0.80;;;;;;;;;;5038180;28;20247;-16
2022/06/21 13:05:47;;;;;;;4.57;0.55;;;;;;;;;;5041542;28;20247;-16
2022/06/21 13:08:38;;;;;;;3.60;0.80;;;;;;;;;;5045512;28;20786;-16
2022/06/21 13:11:11;;;;;;;4.60;0.73;;;;;;;;;;5051007;28;20242;-16
2022/06/21 13:13:40;;;;;;;3.47;0.93;;;;;;;;;;5050449;28;20226;-16
2022/06/21 13:16:11;;;;;;;2.95;0.68;;;;;;;;;;5043372;28;20231;-16
2022/06/21 13:18:50;;;;;;;3.72;0.60;;;;;;;;;;5052464;28;20241;-17
2022/06/21 13:21:21;;;;;;;2.63;0.70;;;;;;;;;;5050463;28;20226;-16
2022/06/21 13:23:53;;;;;;;3.33;0.50;;;;;;;;;;5051729;28;20246;-16
2022/06/21 13:26:24;;;;;;;5.35;0.52;;;;;;;;;;5039600;28;20260;-17
2022/06/21 13:28:55;;;;;;;2.65;0.60;;;;;;;;;;5052203;28;20602;-16
2022/06/21 13:31:23;;;;;;;3.28;0.63;;;;;;;;;;5051105;28;20245;-16
2022/06/21 13:33:58;;;;;;;2.60;0.50;;;;;;;;;;5051453;28;20604;-16
2022/06/21 13:36:28;;;;;;;1.65;0.88;;;;;;;;;;5051162;28;20299;-16
2022/06/21 13:38:56;;;;;;;2.25;0.60;;;;;;;;;;5051784;28;20245;-16
2022/06/21 13:44:11;;;;;;;2.28;0.70;;;;;;;;;;5048620;28;20233;-17
2022/06/21 13:46:38;;;;;;;2.00;0.50;;;;;;;;;;5051025;28;20238;-16
2022/06/21 13:49:14;;;;;;;3.78;0.60;;;;;;;;;;5051169;28;20238;-16
2022/06/21 13:51:43;;;;;;;1.80;0.60;;;;;;;;;;5051698;28;20245;-16
2022/06/21 13:54:14;;;;;;;2.45;0.82;;;;;;;;;;5051152;28;20237;-16
2022/06/21 13:56:43;;;;;;;2.83;0.80;;;;;;;;;;5051967;28;20226;-16
2022/06/21 13:59:17;;;;;;;2.85;0.50;;;;;;;;;;5051094;28;20249;-16
2022/06/21 14:01:46;;;;;;;1.63;0.80;;;;;;;;;;5046883;28;20230;-16
2022/06/21 14:04:17;;;;;;;3.25;0.60;;;;;;;;;;5050361;28;20958;-16
2022/06/21 14:06:47;;;;;;;3.03;0.60;;;;;;;;;;5051610;28;20317;-17
2022/06/21 14:09:16;;;;;;;3.50;1.08;;;;;;;;;;5051771;28;20230;-16
2022/06/21 14:11:44;;;;;;;2.35;0.70;;;;;;;;;;5051797;28;20226;-16
2022/06/21 14:14:17;;;;;;;2.25;0.60;;;;;;;;;;5051340;28;20234;-16
2022/06/21 14:16:45;;;;;;;2.53;0.57;;;;;;;;;;5050159;28;20226;-16
2022/06/21 14:19:15;;;;;;;1.52;0.55;;;;;;;;;;5051399;28;20234;-16
2022/06/21 14:21:44;;;;;;;3.03;0.52;;;;;;;;;;5050607;28;20618;-17
2022/06/21 14:24:13;;;;;;;2.03;0.73;;;;;;;;;;5050894;28;20237;-16
2022/06/21 14:26:43;;;;;;;5.20;0.80;;;;;;;;;;5049878;28;20718;-16
2022/06/21 14:29:12;;;;;;;1.35;0.60;;;;;;;;;;5051054;28;20230;-16
2022/06/21 14:31:40;;;;;;;3.20;0.75;;;;;;;;;;5050973;28;20254;-16
2022/06/21 14:34:09;;;;;;;2.38;0.57;;;;;;;;;;5051685;28;20227;-16
2022/06/21 14:36:37;;;;;;;1.88;0.70;;;;;;;;;;5051296;28;20237;-17
2022/06/21 14:39:09;;;;;;;2.28;0.60;;;;;;;;;;5050465;28;20321;-16
2022/06/21 14:41:36;;;;;;;2.70;0.63;;;;;;;;;;5050981;28;20226;-16
2022/06/21 14:44:06;;;;;;;3.70;0.77;;;;;;;;;;5050923;28;20250;-16
2022/06/21 14:46:35;;;;;;;1.83;0.50;;;;;;;;;;5036648;28;20240;-16
2022/06/21 14:49:05;;;;;;;1.80;0.68;;;;;;;;;;5050218;28;20983;-16
2022/06/21 14:51:34;;;;;;;2.28;0.70;;;;;;;;;;5050518;28;20612;-16
2022/06/21 14:54:26;;;;;;;2.30;0.90;;;;;;;;;;5050683;28;20237;-17
2022/06/21 14:56:58;;;;;;;2.90;0.80;;;;;;;;;;5030480;28;20234;-16
2022/06/21 14:59:35;;;;;;;1.85;0.65;;;;;;;;;;5050606;28;21048;-16
2022/06/21 15:02:26;;;;;;;2.13;0.63;;;;;;;;;;5050393;28;20230;-17
2022/06/21 15:04:55;;;;;;;4.28;0.50;;;;;;;;;;5050867;28;20252;-17
2022/06/21 15:07:25;;;;;;;2.75;0.80;;;;;;;;;;5050688;28;20234;-16
2022/06/21 15:09:53;;;;;;;2.15;0.80;;;;;;;;;;5051001;28;20226;-16
2022/06/21 15:12:24;;;;;;;4.70;0.70;;;;;;;;;;5050472;28;20234;-16
2022/06/21 15:14:53;;;;;;;3.60;0.88;;;;;;;;;;5050715;28;20725;-16
2022/06/21 15:17:20;;;;;;;3.25;0.63;;;;;;;;;;5046475;28;20230;-16
2022/06/21 15:19:55;;;;;;;2.10;0.63;;;;;;;;;;5050871;28;20240;-16